Saturday, November 18, 2017, 6:55 AM EST
Back to Local

KBAF, Westfield Barnes Municipal

Location: Westfield, MA, United States Lat: 42.167
Local Time: 6:55 AM EST (11:55 GMT) Lon: -72.717
Time Zone: US/Eastern Elev: 272 ft

Show me the last for .
Show Decoded

2017-11-18 05:53 METAR KBAF 181053Z AUTO 00000KT 10SM CLR M06/M08 A2998 RMK AO2 SLP159 T10611078
                 =
2017-11-18 04:53 METAR KBAF 180953Z AUTO 00000KT 10SM CLR M06/M08 A2998 RMK AO2 SLP158 T10611078
                 =
2017-11-18 03:53 METAR KBAF 180853Z AUTO 00000KT 10SM CLR M06/M07 A2999 RMK AO2 SLP162 T10561072
                 55007 =
2017-11-18 02:53 METAR KBAF 180753Z AUTO 00000KT 10SM CLR M05/M06 A2999 RMK AO2 SLP160 T10501061
                 =
2017-11-18 01:53 METAR KBAF 180653Z AUTO 14003KT 10SM CLR M06/M08 A3001 RMK AO2 SLP167 T10561083
                 =
2017-11-18 00:53 METAR KBAF 180553Z AUTO 00000KT 10SM FEW120 M04/M08 A3001 RMK AO2 SLP168
                 T10391078 10011 21044 58003 =
2017-11-17 23:53 METAR KBAF 180453Z AUTO 30007KT 10SM CLR M01/M08 A3002 RMK AO2 SLP173 T10111083
                 400561044 =
2017-11-17 22:53 METAR KBAF 180353Z AUTO 26006KT 10SM CLR M03/M07 A3002 RMK AO2 SLP172 T10281072
                 =
2017-11-17 21:53 METAR KBAF 180253Z 00000KT 10SM CLR M03/M08 A3002 RMK AO2 SLP171 T10281078 58001
                 =
2017-11-17 20:53 METAR KBAF 180153Z 32005KT 10SM CLR M01/M08 A3003 RMK AO2 SLP175 T10061078 =
2017-11-17 19:53 METAR KBAF 180053Z 29004KT 10SM CLR 01/M08 A3004 RMK AO2 SLP177 T00061078 =
2017-11-17 18:53 METAR KBAF 172353Z 00000KT 10SM CLR 01/M08 A3002 RMK AO2 SLP172 T00061078 10056
                 20006 50008 =
2017-11-17 17:53 METAR KBAF 172253Z 31010KT 10SM CLR 02/M08 A3003 RMK AO2 SLP173 T00221078 =
2017-11-17 16:53 METAR KBAF 172153Z 30011KT 10SM CLR 02/M08 A3002 RMK AO2 SLP169 T00221078 =
2017-11-17 15:53 METAR KBAF 172053Z 29013KT 10SM CLR 04/M07 A3000 RMK AO2 PK WND 30026/2027
                 SLP163 T00391072 53012 =
2017-11-17 14:53 METAR KBAF 171953Z 29010G20KT 10SM CLR 05/M07 A2998 RMK AO2 SLP157 T00501072 =
2017-11-17 13:53 METAR KBAF 171853Z 31019G25KT 10SM CLR 06/M07 A2997 RMK AO2 SLP152 T00561067 =
2017-11-17 12:53 METAR KBAF 171753Z 30012G21KT 10SM CLR 05/M06 A2996 RMK AO2 SLP150 T00501056
                 10056 20022 55008 =
2017-11-17 11:53 METAR KBAF 171653Z 31018G26KT 10SM CLR 05/M05 A2996 RMK AO2 PK WND 29027/1639
                 SLP148 T00501050 =
2017-11-17 10:53 METAR KBAF 171553Z 32018G24KT 10SM CLR 05/M05 A2997 RMK AO2 PK WND 30026/1456
                 SLP154 T00501050 =
2017-11-17 09:53 METAR KBAF 171453Z 31013G24KT 10SM BKN037 03/M05 A2999 RMK AO2 PK WND 31028/1429
                 SLP159 T00281050 51018 =
2017-11-17 08:53 METAR KBAF 171353Z 32015G21KT 10SM OVC037 03/M04 A2997 RMK AO2 PK WND 33028/1307
                 SLP155 T00281044 =
2017-11-17 07:53 METAR KBAF 171253Z 32014G25KT 10SM OVC035 02/M04 A2997 RMK AO2 PK WND 31032/1206
                 SLP154 T00221044 =

Support USWX by starting your Amazon purchase here.